Time;durP1;ratioP1;P1;durP2;ratioP2;P2;SDS_P1;SDS_P2;PMS_P1;PMS_P2;Temp;Humidity;BMP_temperature;BMP_pressure;BME280_temperature;BME280_humidity;BME280_pressure;Samples;Min_cycle;Max_cycle;Signal;HPM_P1;HPM_P2
2021/04/20 00:00:11;;;;;;;37.03;21.75;;;7.80;81.90;;;;;;5049708;28;20155;-82
2021/04/20 00:02:37;;;;;;;37.20;23.30;;;7.80;82.10;;;;;;5073773;28;20471;-81
2021/04/20 00:05:07;;;;;;;36.03;21.65;;;7.70;82.60;;;;;;5063831;28;20431;-82
2021/04/20 00:07:32;;;;;;;36.05;22.52;;;7.80;82.60;;;;;;5057096;28;20153;-81
2021/04/20 00:09:58;;;;;;;36.63;23.05;;;7.80;82.60;;;;;;5033133;28;20274;-81
2021/04/20 00:12:24;;;;;;;38.90;23.98;;;7.80;82.70;;;;;;5053470;28;20032;-81
2021/04/20 00:14:50;;;;;;;40.60;25.38;;;7.70;82.80;;;;;;5076323;28;20491;-82
2021/04/20 00:17:16;;;;;;;42.00;27.85;;;7.70;82.90;;;;;;5043268;28;20035;-81
2021/04/20 00:19:42;;;;;;;46.42;27.02;;;7.80;83.10;;;;;;5075091;28;20119;-81
2021/04/20 00:22:08;;;;;;;40.45;26.17;;;7.80;83.40;;;;;;5074711;28;20096;-81
2021/04/20 00:24:34;;;;;;;39.15;26.08;;;7.80;83.20;;;;;;5073347;28;20051;-81
2021/04/20 00:27:01;;;;;;;45.35;28.02;;;7.80;84.00;;;;;;5059900;28;20028;-81
2021/04/20 00:29:27;;;;;;;44.47;27.50;;;7.80;83.40;;;;;;5010620;28;20041;-81
2021/04/20 00:31:53;;;;;;;47.03;29.70;;;7.80;83.80;;;;;;5056969;28;20047;-82
2021/04/20 00:34:18;;;;;;;44.78;28.25;;;7.80;83.50;;;;;;5044495;28;20044;-81
2021/04/20 00:36:44;;;;;;;47.78;27.88;;;7.80;83.80;;;;;;5063845;28;20032;-81
2021/04/20 00:39:10;;;;;;;46.30;28.80;;;7.80;84.20;;;;;;5049080;28;20044;-82
2021/04/20 00:41:36;;;;;;;46.65;29.30;;;7.80;84.00;;;;;;5064843;28;20037;-82
2021/04/20 00:44:02;;;;;;;44.05;26.95;;;7.80;84.00;;;;;;5077601;28;20040;-81
2021/04/20 00:46:28;;;;;;;33.33;21.38;;;7.80;84.00;;;;;;5079687;28;20155;-82
2021/04/20 00:48:54;;;;;;;33.50;20.30;;;7.70;83.70;;;;;;5075378;28;20185;-81
2021/04/20 00:51:20;;;;;;;32.95;21.08;;;7.50;83.70;;;;;;5079340;28;20028;-82
2021/04/20 00:53:46;;;;;;;28.92;18.88;;;7.40;83.90;;;;;;5074444;28;20456;-81
2021/04/20 00:56:12;;;;;;;34.65;20.85;;;7.30;84.00;;;;;;5032366;28;20037;-80
2021/04/20 00:58:38;;;;;;;32.78;21.55;;;7.20;84.30;;;;;;5047844;28;20179;-80
2021/04/20 01:01:04;;;;;;;35.92;21.25;;;7.10;84.60;;;;;;5056926;28;20044;-81
2021/04/20 01:03:31;;;;;;;39.30;25.08;;;7.00;84.90;;;;;;5061042;28;20024;-81
2021/04/20 01:05:57;;;;;;;46.13;27.83;;;7.00;85.30;;;;;;5054302;28;20096;-81
2021/04/20 01:08:25;;;;;;;44.13;27.20;;;7.10;85.40;;;;;;5056961;28;20039;-81
2021/04/20 01:10:54;;;;;;;50.67;28.65;;;7.20;85.30;;;;;;5056565;28;20265;-81
2021/04/20 01:13:24;;;;;;;51.38;30.83;;;7.20;85.40;;;;;;5057799;28;20091;-81
2021/04/20 01:15:52;;;;;;;34.60;21.73;;;7.20;85.40;;;;;;5058856;28;20036;-82
2021/04/20 01:18:27;;;;;;;39.20;23.63;;;7.20;85.50;;;;;;5066095;28;20040;-81
2021/04/20 01:20:58;;;;;;;38.22;23.90;;;7.20;85.40;;;;;;5062141;28;20050;-82
2021/04/20 01:23:43;;;;;;;38.08;23.25;;;7.10;85.80;;;;;;5064962;28;20101;-82
2021/04/20 01:26:11;;;;;;;42.58;26.38;;;7.10;85.80;;;;;;5068620;28;20035;-81
2021/04/20 01:28:38;;;;;;;45.65;27.83;;;7.10;85.80;;;;;;5066378;28;20012;-80
2021/04/20 01:31:05;;;;;;;44.35;27.20;;;7.10;86.00;;;;;;5065868;28;20042;-81
2021/04/20 01:33:31;;;;;;;54.15;29.40;;;7.20;86.00;;;;;;5050864;28;20040;-82
2021/04/20 01:35:57;;;;;;;47.20;28.58;;;7.20;86.10;;;;;;5061525;28;20108;-81
2021/04/20 01:38:23;;;;;;;42.72;25.65;;;7.20;86.20;;;;;;5081126;28;20020;-82
2021/04/20 01:40:49;;;;;;;38.30;24.02;;;7.10;86.20;;;;;;5063246;28;20084;-82
2021/04/20 01:43:16;;;;;;;42.40;26.08;;;7.10;86.10;;;;;;5088003;28;20032;-82
2021/04/20 01:45:43;;;;;;;39.20;24.70;;;7.00;86.10;;;;;;5061371;28;20051;-82
2021/04/20 01:48:12;;;;;;;45.42;27.73;;;7.10;86.30;;;;;;5072001;28;20112;-82
2021/04/20 01:50:42;;;;;;;53.58;31.52;;;7.00;86.50;;;;;;5050272;28;20043;-81
2021/04/20 01:53:09;;;;;;;54.63;31.67;;;7.00;86.80;;;;;;5068041;28;20036;-82
2021/04/20 01:55:36;;;;;;;51.17;31.92;;;7.00;87.00;;;;;;5075192;28;20074;-82
2021/04/20 01:58:03;;;;;;;52.80;31.50;;;7.00;87.00;;;;;;5052656;28;20098;-82
2021/04/20 02:00:30;;;;;;;48.13;27.65;;;7.00;87.00;;;;;;5059085;28;20040;-83
2021/04/20 02:02:56;;;;;;;45.38;27.95;;;7.00;87.20;;;;;;5048982;28;21671;-82
2021/04/20 02:07:50;;;;;;;29.85;19.85;;;6.90;86.50;;;;;;5050652;28;20052;-81
2021/04/20 02:10:16;;;;;;;33.03;20.02;;;6.80;86.40;;;;;;5060872;28;20033;-81
2021/04/20 02:12:43;;;;;;;34.17;20.65;;;6.70;86.40;;;;;;5063932;28;20089;-81
2021/04/20 02:15:13;;;;;;;31.55;21.33;;;6.60;86.50;;;;;;5048920;28;20041;-81
2021/04/20 02:17:42;;;;;;;35.88;23.20;;;6.60;86.80;;;;;;5057358;28;20037;-81
2021/04/20 02:20:10;;;;;;;43.08;24.30;;;6.50;87.00;;;;;;5058029;28;20403;-81
2021/04/20 02:22:44;;;;;;;42.15;25.13;;;6.40;87.20;;;;;;5057573;28;20051;-81
2021/04/20 02:25:13;;;;;;;40.70;24.52;;;6.40;87.40;;;;;;5052070;28;20040;-81
2021/04/20 02:27:40;;;;;;;42.65;25.33;;;6.30;87.60;;;;;;5048192;28;20430;-81
2021/04/20 02:30:09;;;;;;;43.40;25.83;;;6.30;87.80;;;;;;5042988;28;20109;-81
2021/04/20 02:32:36;;;;;;;38.70;25.02;;;6.20;87.70;;;;;;5060548;28;20032;-81
2021/04/20 02:35:05;;;;;;;48.08;27.40;;;6.20;88.00;;;;;;5112953;22;20012;-91
2021/04/20 02:37:34;;;;;;;48.05;27.63;;;6.30;88.30;;;;;;5066460;28;20040;-93
2021/04/20 02:40:01;;;;;;;50.25;29.05;;;6.30;88.70;;;;;;5051868;28;20066;-91
2021/04/20 02:42:35;;;;;;;50.40;28.50;;;6.30;89.10;;;;;;5034309;28;20040;-92
2021/04/20 02:45:03;;;;;;;48.23;26.87;;;6.40;88.90;;;;;;5049161;28;20131;-91
2021/04/20 02:47:30;;;;;;;53.10;28.65;;;6.40;88.70;;;;;;5041378;28;20048;-91
2021/04/20 02:49:56;;;;;;;53.70;28.73;;;6.40;88.70;;;;;;5060988;28;20056;-93
2021/04/20 02:52:25;;;;;;;43.92;27.25;;;6.50;88.60;;;;;;5040598;28;20040;-92
2021/04/20 02:54:51;;;;;;;44.35;26.08;;;6.50;88.60;;;;;;5047021;28;20035;-93
2021/04/20 02:57:18;;;;;;;40.60;25.58;;;6.50;88.60;;;;;;5029509;28;20055;-93
2021/04/20 02:59:44;;;;;;;40.95;24.13;;;6.50;88.80;;;;;;5065528;28;20032;-92
2021/04/20 03:02:11;;;;;;;50.67;29.23;;;6.60;89.10;;;;;;5043210;28;20182;-92
2021/04/20 03:04:39;;;;;;;45.45;26.02;;;6.60;89.00;;;;;;5041470;28;20302;-92
2021/04/20 03:07:07;;;;;;;40.50;25.60;;;6.60;88.70;;;;;;5058789;28;21416;-91
2021/04/20 03:09:35;;;;;;;39.88;23.98;;;6.60;88.60;;;;;;5044235;28;20471;-93
2021/04/20 03:12:01;;;;;;;40.83;23.27;;;6.60;88.50;;;;;;5059429;28;20334;-92
2021/04/20 03:14:28;;;;;;;37.35;21.73;;;6.60;88.50;;;;;;5060578;28;20412;-93
2021/04/20 03:16:55;;;;;;;42.22;26.20;;;6.60;88.40;;;;;;5070911;28;20032;-94
2021/04/20 03:19:21;;;;;;;46.47;25.63;;;6.50;88.60;;;;;;5048436;28;20040;-93
2021/04/20 03:21:48;;;;;;;44.85;26.02;;;6.60;88.80;;;;;;5056837;28;20070;-94
2021/04/20 03:24:32;;;;;;;43.20;23.60;;;6.60;88.80;;;;;;5037082;28;20127;-92
2021/04/20 03:26:58;;;;;;;45.38;25.17;;;6.60;89.10;;;;;;5067064;28;20040;-92
2021/04/20 03:29:26;;;;;;;45.20;26.65;;;6.50;88.80;;;;;;5065675;28;20461;-93
2021/04/20 03:31:53;;;;;;;43.10;23.67;;;6.50;88.70;;;;;;5036498;28;20048;-92
2021/04/20 03:34:35;;;;;;;35.15;22.33;;;6.60;88.80;;;;;;5045911;28;20039;-91
2021/04/20 03:37:11;;;;;;;40.38;24.98;;;6.50;88.50;;;;;;5065101;28;20599;-93
2021/04/20 03:39:42;;;;;;;40.60;24.02;;;6.40;88.50;;;;;;5064172;28;20059;-91
2021/04/20 03:42:15;;;;;;;38.50;23.05;;;6.40;88.70;;;;;;5054523;28;20075;-91
2021/04/20 03:44:45;;;;;;;;;;;6.40;88.80;;;;;;5040717;28;20043;-93
2021/04/20 03:47:37;;;;;;;39.83;24.55;;;6.30;89.00;;;;;;5050662;28;19923;-92
2021/04/20 03:50:07;;;;;;;40.50;24.73;;;6.20;88.70;;;;;;5059735;28;20028;-93
2021/04/20 03:52:43;;;;;;;45.60;25.95;;;6.10;88.70;;;;;;5023821;28;20162;-93
2021/04/20 03:55:12;;;;;;;48.63;26.40;;;6.10;88.90;;;;;;5054891;28;20028;-92
2021/04/20 03:57:42;;;;;;;44.53;25.77;;;6.00;88.90;;;;;;5037395;28;20048;-92
2021/04/20 04:00:12;;;;;;;42.85;26.20;;;6.00;88.90;;;;;;5047298;28;20032;-91
2021/04/20 04:02:41;;;;;;;41.65;24.27;;;6.00;89.20;;;;;;5038642;28;20039;-92
2021/04/20 04:05:10;;;;;;;42.60;25.30;;;5.90;89.30;;;;;;5038177;28;20044;-93
2021/04/20 04:07:38;;;;;;;44.13;24.33;;;5.90;89.50;;;;;;5045156;28;20048;-92
2021/04/20 04:10:04;;;;;;;48.63;25.95;;;5.80;89.50;;;;;;5048854;28;20048;-92
2021/04/20 04:12:37;;;;;;;48.00;27.52;;;5.90;89.70;;;;;;5047203;28;20040;-92
2021/04/20 04:15:05;;;;;;;51.63;28.75;;;5.90;89.50;;;;;;5046772;28;20507;-92
2021/04/20 04:17:39;;;;;;;49.65;29.45;;;5.90;89.50;;;;;;5028913;28;20405;-93
2021/04/20 04:20:06;;;;;;;48.13;27.42;;;5.90;89.70;;;;;;5052533;28;20038;-92
2021/04/20 04:22:36;;;;;;;44.28;26.13;;;5.80;89.70;;;;;;5062104;28;20066;-92
2021/04/20 04:25:04;;;;;;;47.70;26.88;;;5.80;89.80;;;;;;5058922;28;20164;-92
2021/04/20 04:27:42;;;;;;;52.38;27.48;;;5.80;89.70;;;;;;5047311;28;20086;-92
2021/04/20 04:30:10;;;;;;;51.22;27.88;;;5.80;89.80;;;;;;5047212;28;20044;-92
2021/04/20 04:32:39;;;;;;;49.72;27.63;;;5.80;90.00;;;;;;5041540;28;20498;-93
2021/04/20 04:35:06;;;;;;;48.88;28.73;;;5.80;89.90;;;;;;5039153;28;20055;-92
2021/04/20 04:37:39;;;;;;;50.25;29.58;;;5.80;90.00;;;;;;5046350;28;20511;-91
2021/04/20 04:40:06;;;;;;;51.92;29.15;;;5.80;90.00;;;;;;5051894;28;20036;-93
2021/04/20 04:42:38;;;;;;;54.42;29.73;;;5.80;90.00;;;;;;5037649;28;20415;-93
2021/04/20 04:45:08;;;;;;;57.28;30.55;;;5.80;90.00;;;;;;5038411;28;20043;-92
2021/04/20 04:47:41;;;;;;;56.55;30.10;;;5.80;90.00;;;;;;5038211;28;20056;-93
2021/04/20 04:50:12;;;;;;;56.03;32.08;;;5.80;90.10;;;;;;5042631;28;20059;-93
2021/04/20 04:52:45;;;;;;;57.17;32.80;;;5.80;90.10;;;;;;5060896;28;20042;-94
2021/04/20 04:55:51;;;;;;;65.38;33.00;;;5.80;90.10;;;;;;5071015;28;20040;-94
2021/04/20 04:58:54;;;;;;;;;;;;;;;;;;;;;
2021/04/20 05:05:38;;;;;;;74.35;38.65;;;5.90;90.20;;;;;;4972609;28;20042;-93
2021/04/20 05:08:08;;;;;;;81.80;42.30;;;6.00;90.30;;;;;;4987172;28;20540;-93
2021/04/20 05:10:34;;;;;;;65.63;38.03;;;6.00;90.20;;;;;;5029006;28;20476;-94
2021/04/20 05:13:01;;;;;;;76.38;41.80;;;6.00;90.20;;;;;;5052762;28;20127;-93
2021/04/20 05:15:28;;;;;;;76.65;41.15;;;6.20;90.30;;;;;;5047523;28;20094;-94
2021/04/20 05:17:54;;;;;;;74.35;39.58;;;6.20;90.30;;;;;;5048867;28;20049;-93
2021/04/20 05:20:21;;;;;;;83.20;44.10;;;6.20;90.40;;;;;;5052999;28;20051;-93
2021/04/20 05:22:49;;;;;;;83.20;43.05;;;6.30;90.30;;;;;;5050823;28;20511;-94
2021/04/20 05:25:19;;;;;;;71.43;39.55;;;6.30;90.40;;;;;;5040488;28;20718;-92
2021/04/20 05:27:45;;;;;;;76.97;43.33;;;6.30;90.40;;;;;;5053363;28;20052;-93
2021/04/20 05:30:13;;;;;;;84.85;46.17;;;6.40;90.40;;;;;;5050964;28;20131;-94
2021/04/20 05:32:52;;;;;;;74.10;42.65;;;6.40;90.60;;;;;;5070384;28;20127;-93
2021/04/20 05:35:24;;;;;;;79.35;45.05;;;6.50;90.50;;;;;;5051822;28;20066;-94
2021/04/20 05:37:50;;;;;;;88.93;48.20;;;6.50;90.40;;;;;;5041030;28;20071;-95
2021/04/20 05:40:22;;;;;;;83.93;45.65;;;6.60;90.40;;;;;;5042555;28;20135;-93
2021/04/20 05:42:51;;;;;;;86.43;46.90;;;6.60;90.50;;;;;;5042470;28;20064;-92
2021/04/20 05:45:17;;;;;;;76.68;42.53;;;6.70;90.50;;;;;;5046089;28;20686;-93
2021/04/20 05:47:48;;;;;;;84.85;49.33;;;6.80;90.60;;;;;;5025300;28;20036;-93
2021/04/20 05:50:54;;;;;;;88.90;48.83;;;6.90;90.50;;;;;;5043502;28;20048;-93
2021/04/20 05:53:44;;;;;;;84.18;49.17;;;7.00;90.60;;;;;;5036243;28;20041;-93
2021/04/20 05:56:56;;;;;;;84.03;49.15;;;7.10;90.50;;;;;;5015459;28;20061;-92
2021/04/20 05:59:35;;;;;;;91.18;50.42;;;7.10;90.50;;;;;;4989340;28;20056;-91
2021/04/20 06:02:19;;;;;;;93.10;52.03;;;7.20;90.50;;;;;;4971538;28;20038;-91
2021/04/20 06:05:08;;;;;;;87.97;51.13;;;7.30;90.60;;;;;;4986665;28;20076;-93
2021/04/20 06:07:50;;;;;;;83.18;46.42;;;7.40;90.60;;;;;;4990108;28;20144;-92
2021/04/20 06:10:31;;;;;;;86.00;49.25;;;7.50;90.60;;;;;;5002003;28;20049;-93
2021/04/20 06:13:29;;;;;;;93.22;52.83;;;7.60;90.60;;;;;;5010471;28;20072;-91
2021/04/20 06:15:57;;;;;;;84.63;48.85;;;7.70;90.70;;;;;;5061674;28;20120;-93
2021/04/20 06:18:41;;;;;;;78.63;48.53;;;7.80;90.70;;;;;;5072521;28;20039;-92
2021/04/20 06:21:29;;;;;;;76.95;47.53;;;7.90;90.70;;;;;;5063332;28;20036;-92
2021/04/20 06:24:05;;;;;;;77.80;46.60;;;8.00;90.60;;;;;;5047696;28;20044;-92
2021/04/20 06:26:41;;;;;;;76.50;47.58;;;8.10;90.60;;;;;;5081026;28;20055;-92
2021/04/20 06:29:24;;;;;;;76.13;45.97;;;8.20;90.50;;;;;;5077552;28;20471;-94
2021/04/20 06:32:20;;;;;;;73.88;43.35;;;8.30;90.50;;;;;;5076077;28;20123;-93
2021/04/20 06:35:56;;;;;;;65.63;40.22;;;8.40;90.30;;;;;;5056799;28;20040;-94
2021/04/20 06:38:24;;;;;;;61.70;38.47;;;8.50;90.10;;;;;;5076053;28;20048;-92
2021/04/20 06:40:57;;;;;;;59.58;40.72;;;8.60;89.70;;;;;;5049726;28;20047;-93
2021/04/20 06:43:28;;;;;;;;;;;8.70;89.40;;;;;;5050855;28;20063;-93
2021/04/20 06:46:00;;;;;;;64.70;40.30;;;8.70;89.40;;;;;;5039820;28;19916;-92
2021/04/20 06:48:42;;;;;;;61.17;37.95;;;8.80;89.00;;;;;;5049726;28;20048;-94
2021/04/20 06:51:13;;;;;;;59.47;38.15;;;8.90;88.90;;;;;;5062359;28;20044;-93
2021/04/20 06:53:47;;;;;;;55.53;36.28;;;8.90;88.50;;;;;;5047105;28;20115;-94
2021/04/20 06:56:42;;;;;;;54.53;34.25;;;9.00;88.30;;;;;;5071650;28;20040;-94
2021/04/20 06:59:11;;;;;;;57.22;34.75;;;9.10;87.80;;;;;;5047936;28;20052;-93
2021/04/20 07:01:51;;;;;;;57.25;34.75;;;9.20;87.80;;;;;;5050641;28;20198;-93
2021/04/20 07:04:32;;;;;;;58.00;35.65;;;9.30;87.70;;;;;;5048158;28;20127;-93
2021/04/20 07:07:27;;;;;;;59.88;35.28;;;9.40;87.80;;;;;;5044736;28;20068;-94
2021/04/20 07:10:04;;;;;;;51.22;36.63;;;9.50;87.60;;;;;;5047546;28;20303;-94
2021/04/20 07:12:33;;;;;;;53.13;35.63;;;9.60;87.40;;;;;;5056842;28;20436;-94
2021/04/20 07:15:02;;;;;;;52.72;34.72;;;9.70;87.30;;;;;;5066564;28;20535;-94
2021/04/20 07:17:36;;;;;;;55.72;35.63;;;9.80;87.20;;;;;;5034200;28;20420;-93
2021/04/20 07:20:26;;;;;;;58.58;34.38;;;9.90;87.10;;;;;;5056273;28;20051;-93
2021/04/20 07:23:32;;;;;;;53.92;34.15;;;10.00;86.70;;;;;;5050841;28;20511;-94
2021/04/20 07:26:26;;;;;;;56.40;34.17;;;10.00;86.20;;;;;;5042922;28;20064;-93
2021/04/20 07:29:30;;;;;;;54.50;34.10;;;10.20;86.10;;;;;;5047637;28;20056;-94
2021/04/20 07:32:33;;;;;;;46.22;30.92;;;10.30;85.90;;;;;;5096381;28;20040;-94
2021/04/20 07:35:02;;;;;;;46.80;30.00;;;10.40;85.10;;;;;;5071473;28;20100;-94
2021/04/20 07:37:53;;;;;;;45.92;30.63;;;10.60;84.60;;;;;;5093986;27;20146;-95
2021/04/20 07:40:54;;;;;;;46.50;30.58;;;10.60;84.00;;;;;;5054072;28;20040;-94
2021/04/20 07:43:37;;;;;;;40.00;26.63;;;10.70;83.60;;;;;;5050765;28;20074;-94
2021/04/20 07:46:54;;;;;;;43.20;25.90;;;10.80;82.30;;;;;;5051636;28;20040;-94
2021/04/20 07:49:50;;;;;;;40.15;26.25;;;10.90;81.60;;;;;;5084371;28;20906;-94
2021/04/20 07:52:40;;;;;;;42.85;27.38;;;11.00;81.00;;;;;;5044246;28;20036;-93
2021/04/20 07:55:17;;;;;;;36.38;23.98;;;11.10;80.70;;;;;;5042547;28;20036;-94
2021/04/20 07:57:50;;;;;;;37.13;24.77;;;11.10;79.90;;;;;;5047199;28;20547;-94
2021/04/20 08:01:08;;;;;;;37.20;24.63;;;11.20;79.80;;;;;;5047533;28;20077;-93
2021/04/20 08:09:46;;;;;;;33.35;21.10;;;11.50;78.90;;;;;;5109506;27;20043;-82
2021/04/20 08:12:18;;;;;;;31.60;18.83;;;11.60;78.50;;;;;;5115547;27;20032;-82
2021/04/20 08:15:09;;;;;;;29.02;18.27;;;11.80;77.30;;;;;;5096185;27;20039;-84
2021/04/20 08:17:58;;;;;;;32.15;19.67;;;11.80;74.70;;;;;;5122049;27;20464;-83
2021/04/20 08:20:26;;;;;;;31.77;21.20;;;11.90;75.00;;;;;;5138105;27;20065;-83
2021/04/20 08:22:53;;;;;;;33.20;20.65;;;12.00;75.20;;;;;;5092477;27;20127;-82
2021/04/20 08:25:30;;;;;;;36.78;21.67;;;12.10;74.60;;;;;;5102722;27;20789;-82
2021/04/20 08:28:22;;;;;;;36.40;21.88;;;12.20;74.30;;;;;;5100352;27;20035;-82
2021/04/20 08:31:11;;;;;;;31.42;19.90;;;12.40;74.70;;;;;;5079351;28;20124;-85
2021/04/20 08:33:41;;;;;;;29.77;18.45;;;12.50;74.30;;;;;;5103910;27;20032;-83
2021/04/20 08:36:29;;;;;;;30.25;19.80;;;12.70;73.70;;;;;;5100177;27;20039;-82
2021/04/20 08:39:07;;;;;;;27.50;19.27;;;12.80;72.70;;;;;;5112659;27;20115;-84
2021/04/20 08:41:41;;;;;;;29.13;16.88;;;12.90;72.40;;;;;;5092479;27;20496;-83
2021/04/20 08:44:50;;;;;;;27.35;17.55;;;13.00;71.20;;;;;;5124562;27;20488;-82
2021/04/20 08:47:33;;;;;;;27.40;16.90;;;13.10;70.00;;;;;;5066981;28;20036;-83
2021/04/20 08:50:09;;;;;;;;;;;13.10;69.30;;;;;;5119513;27;20405;-82
2021/04/20 08:52:48;;;;;;;25.63;16.90;;;13.20;70.20;;;;;;5119462;27;19922;-83
2021/04/20 08:55:19;;;;;;;28.92;16.63;;;13.40;69.20;;;;;;5127475;27;20527;-83
2021/04/20 08:58:28;;;;;;;24.45;16.08;;;13.50;68.20;;;;;;5112899;27;20035;-85
2021/04/20 09:01:17;;;;;;;25.95;15.65;;;13.50;67.20;;;;;;5111596;27;20023;-83
2021/04/20 09:04:18;;;;;;;27.80;16.15;;;13.60;68.00;;;;;;5109988;27;20036;-84
2021/04/20 09:06:52;;;;;;;22.25;14.75;;;13.70;66.90;;;;;;5086919;28;20983;-83
2021/04/20 09:09:22;;;;;;;23.05;15.45;;;13.70;67.10;;;;;;5105317;27;20100;-83
2021/04/20 09:12:00;;;;;;;22.45;14.48;;;13.80;66.80;;;;;;5099439;27;20024;-82
2021/04/20 09:14:35;;;;;;;25.42;15.07;;;13.90;66.50;;;;;;5109248;27;20046;-83
2021/04/20 09:17:13;;;;;;;30.10;15.07;;;14.10;65.10;;;;;;5100761;27;20039;-83
2021/04/20 09:19:49;;;;;;;20.88;14.13;;;14.10;64.90;;;;;;5110946;27;20068;-82
2021/04/20 09:22:31;;;;;;;27.13;14.65;;;14.20;64.60;;;;;;5104707;27;20044;-82
2021/04/20 09:25:04;;;;;;;20.88;13.50;;;14.30;65.20;;;;;;5090905;28;20069;-82
2021/04/20 09:28:07;;;;;;;21.55;13.13;;;14.40;64.80;;;;;;5102813;27;20039;-83
2021/04/20 09:30:50;;;;;;;23.70;12.88;;;14.50;64.00;;;;;;5112049;28;20035;-84
2021/04/20 09:33:44;;;;;;;19.08;12.20;;;14.60;63.40;;;;;;5110351;28;20355;-85
2021/04/20 09:36:12;;;;;;;22.00;12.55;;;14.70;62.60;;;;;;5119544;28;20051;-84
2021/04/20 09:38:43;;;;;;;22.33;11.93;;;14.70;62.70;;;;;;5120481;28;20023;-85
2021/04/20 09:41:10;;;;;;;22.85;11.95;;;14.80;61.20;;;;;;5118988;28;20106;-84
2021/04/20 09:43:54;;;;;;;16.98;11.40;;;14.80;61.40;;;;;;5088712;28;20034;-86
2021/04/20 09:46:53;;;;;;;19.10;12.13;;;14.90;60.60;;;;;;5120387;28;20415;-83
2021/04/20 09:49:38;;;;;;;21.92;11.35;;;14.90;59.70;;;;;;5142476;27;20469;-85
2021/04/20 09:52:23;;;;;;;21.65;11.75;;;15.10;59.40;;;;;;5129780;27;20035;-84
2021/04/20 09:55:28;;;;;;;17.27;10.43;;;15.20;58.60;;;;;;5123645;27;20117;-82
2021/04/20 09:57:57;;;;;;;21.42;11.15;;;15.20;57.40;;;;;;5082595;27;20320;-84
2021/04/20 10:00:23;;;;;;;19.55;11.38;;;15.20;57.50;;;;;;5117706;27;20751;-84
2021/04/20 10:03:28;;;;;;;26.63;10.98;;;15.20;56.80;;;;;;5110558;27;20050;-83
2021/04/20 10:06:14;;;;;;;20.27;10.68;;;15.20;54.70;;;;;;5126587;27;20601;-83
2021/04/20 10:08:46;;;;;;;22.65;9.85;;;15.30;56.40;;;;;;5119487;27;20023;-83
2021/04/20 10:11:21;;;;;;;18.97;9.83;;;15.40;55.30;;;;;;5131973;27;20129;-83
2021/04/20 10:14:16;;;;;;;22.08;9.60;;;15.50;55.00;;;;;;5128119;27;20355;-82
2021/04/20 10:17:03;;;;;;;16.42;9.82;;;15.70;55.00;;;;;;5131221;27;20031;-83
2021/04/20 10:20:09;;;;;;;16.83;8.18;;;15.80;54.70;;;;;;5117424;27;20107;-83
2021/04/20 10:22:41;;;;;;;15.00;8.77;;;16.00;53.10;;;;;;5075358;27;20047;-84
2021/04/20 10:25:12;;;;;;;14.27;8.77;;;16.10;50.30;;;;;;5109079;27;20042;-83
2021/04/20 10:27:41;;;;;;;16.80;7.85;;;16.00;50.40;;;;;;5114021;27;20474;-84
2021/04/20 10:30:26;;;;;;;13.88;7.80;;;16.00;49.50;;;;;;5099396;27;20493;-82
2021/04/20 10:32:53;;;;;;;16.00;7.78;;;16.00;49.60;;;;;;5137449;27;20039;-81
2021/04/20 10:35:29;;;;;;;13.68;7.50;;;16.10;51.70;;;;;;5097612;27;20047;-82
2021/04/20 10:37:58;;;;;;;12.93;7.57;;;16.30;49.90;;;;;;5102805;27;20032;-82
2021/04/20 10:40:35;;;;;;;13.23;8.07;;;16.30;48.60;;;;;;5109721;27;20054;-83
2021/04/20 10:43:22;;;;;;;13.82;8.00;;;16.40;48.90;;;;;;5115061;27;20177;-82
2021/04/20 10:45:53;;;;;;;13.70;7.95;;;16.50;46.30;;;;;;5119032;27;20064;-84
2021/04/20 10:48:24;;;;;;;15.63;7.55;;;16.40;47.40;;;;;;5121876;27;20088;-84
2021/04/20 10:50:52;;;;;;;13.00;6.70;;;16.50;47.40;;;;;;5113447;27;20395;-82
2021/04/20 10:53:20;;;;;;;16.08;6.45;;;16.60;47.50;;;;;;5126116;27;20062;-85
2021/04/20 10:56:00;;;;;;;11.38;6.53;;;16.60;46.00;;;;;;5132674;27;20041;-83
2021/04/20 10:58:28;;;;;;;9.32;5.45;;;16.70;46.30;;;;;;5129425;27;20036;-82
2021/04/20 11:00:54;;;;;;;8.65;5.18;;;16.80;47.50;;;;;;5124899;27;20481;-83
2021/04/20 11:03:26;;;;;;;13.50;6.35;;;17.00;46.70;;;;;;5119694;27;20473;-83
2021/04/20 11:05:52;;;;;;;14.40;6.75;;;17.10;45.70;;;;;;5109680;27;20368;-84
2021/04/20 11:08:37;;;;;;;9.70;5.90;;;17.10;44.30;;;;;;5093825;27;20269;-83
2021/04/20 11:11:04;;;;;;;11.90;6.18;;;17.10;44.00;;;;;;5106608;27;20028;-83
2021/04/20 11:13:37;;;;;;;15.25;5.60;;;17.10;45.50;;;;;;5108432;27;20036;-84
2021/04/20 11:16:08;;;;;;;12.00;6.28;;;17.10;44.10;;;;;;5131750;27;20027;-86
2021/04/20 11:18:37;;;;;;;10.10;5.78;;;17.20;43.80;;;;;;5123312;27;20035;-85
2021/04/20 11:21:07;;;;;;;15.27;6.78;;;17.20;44.40;;;;;;5112663;27;20536;-83
2021/04/20 11:23:43;;;;;;;15.68;6.10;;;17.30;44.40;;;;;;5112642;27;20058;-84
2021/04/20 11:26:13;;;;;;;10.25;5.65;;;17.40;44.70;;;;;;5115306;27;20058;-84
2021/04/20 11:28:42;;;;;;;14.23;6.07;;;17.40;44.40;;;;;;5109860;27;20103;-84
2021/04/20 11:31:29;;;;;;;13.68;6.28;;;17.60;42.80;;;;;;5119460;27;20034;-83
2021/04/20 11:34:15;;;;;;;10.40;5.72;;;17.60;39.60;;;;;;5126094;27;20609;-83
2021/04/20 11:36:46;;;;;;;9.55;6.30;;;17.60;41.50;;;;;;5115768;27;20035;-83
2021/04/20 11:39:19;;;;;;;12.25;5.70;;;17.60;41.30;;;;;;5129494;27;20534;-82
2021/04/20 11:41:58;;;;;;;12.45;5.90;;;17.60;42.30;;;;;;5128543;27;20027;-82
2021/04/20 11:44:25;;;;;;;9.18;5.63;;;17.70;42.20;;;;;;5129577;27;20035;-82
2021/04/20 11:46:52;;;;;;;11.45;6.50;;;17.80;41.20;;;;;;5111315;27;20035;-83
2021/04/20 11:49:27;;;;;;;11.10;6.18;;;17.80;40.90;;;;;;5101460;27;20034;-84
2021/04/20 11:51:56;;;;;;;10.30;5.80;;;17.90;41.10;;;;;;5110919;27;20396;-84
2021/04/20 11:54:28;;;;;;;11.40;5.50;;;18.00;40.70;;;;;;5121798;27;20046;-83
2021/04/20 11:57:00;;;;;;;10.48;5.45;;;18.00;38.60;;;;;;5128392;27;20053;-85
2021/04/20 11:59:28;;;;;;;11.57;5.57;;;18.00;39.40;;;;;;5115795;27;20024;-85
2021/04/20 12:01:55;;;;;;;11.73;5.30;;;18.10;39.80;;;;;;5109683;27;20059;-84
2021/04/20 12:04:34;;;;;;;16.60;5.78;;;18.30;39.10;;;;;;5106113;27;20039;-84
2021/04/20 12:07:01;;;;;;;13.25;5.80;;;18.30;37.80;;;;;;5109574;27;20032;-84
2021/04/20 12:09:38;;;;;;;10.13;5.80;;;18.40;39.20;;;;;;5111536;27;20024;-83
2021/04/20 12:12:05;;;;;;;13.25;5.75;;;18.50;37.90;;;;;;5126973;27;20028;-83
2021/04/20 12:14:36;;;;;;;12.27;5.28;;;18.60;37.80;;;;;;5128694;27;20112;-84
2021/04/20 12:17:02;;;;;;;11.25;5.43;;;18.70;39.30;;;;;;5113353;27;20039;-85
2021/04/20 12:19:31;;;;;;;15.77;6.00;;;19.00;39.70;;;;;;5108340;27;20038;-84
2021/04/20 12:21:58;;;;;;;9.93;5.63;;;19.30;38.80;;;;;;5114596;27;20032;-84
2021/04/20 12:24:29;;;;;;;9.40;5.85;;;19.60;38.20;;;;;;5116380;27;20059;-85
2021/04/20 12:26:56;;;;;;;10.52;5.53;;;19.80;37.80;;;;;;5111489;27;20035;-84
2021/04/20 12:29:27;;;;;;;13.75;5.93;;;20.10;38.90;;;;;;5089878;27;20035;-84
2021/04/20 12:31:53;;;;;;;12.07;5.68;;;20.20;37.60;;;;;;5103666;27;20552;-84
2021/04/20 12:34:27;;;;;;;11.68;5.10;;;20.30;38.10;;;;;;5129093;27;20469;-83
2021/04/20 12:36:54;;;;;;;10.93;5.03;;;20.50;36.30;;;;;;5111859;27;20072;-84
2021/04/20 12:39:27;;;;;;;12.40;5.30;;;20.40;36.40;;;;;;5117456;27;20054;-82
2021/04/20 12:41:56;;;;;;;10.90;5.22;;;20.30;33.30;;;;;;5132883;27;20055;-83
2021/04/20 12:44:34;;;;;;;12.88;5.07;;;19.90;33.50;;;;;;5113310;27;20043;-83
2021/04/20 12:47:01;;;;;;;8.55;5.43;;;19.60;34.00;;;;;;5113418;27;20389;-85
2021/04/20 12:49:28;;;;;;;9.55;5.10;;;19.50;35.20;;;;;;5093102;27;20024;-85
2021/04/20 12:51:57;;;;;;;16.13;4.47;;;19.50;34.60;;;;;;5100942;27;20825;-82
2021/04/20 12:54:28;;;;;;;10.50;4.30;;;19.50;33.80;;;;;;5109376;27;20040;-84
2021/04/20 12:56:59;;;;;;;10.75;4.78;;;19.30;31.90;;;;;;5112166;27;20271;-84
2021/04/20 12:59:27;;;;;;;8.18;4.35;;;19.30;32.30;;;;;;5118133;27;20067;-86
2021/04/20 13:01:55;;;;;;;9.85;4.70;;;19.30;32.50;;;;;;5124343;27;20035;-85
2021/04/20 13:04:37;;;;;;;9.15;4.18;;;19.70;32.80;;;;;;5123718;27;20055;-83
2021/04/20 13:07:05;;;;;;;9.23;4.63;;;20.20;32.40;;;;;;5125566;27;20019;-84
2021/04/20 13:09:37;;;;;;;10.27;4.10;;;20.50;32.70;;;;;;5128623;27;20045;-84
2021/04/20 13:12:15;;;;;;;9.25;4.38;;;20.60;31.20;;;;;;5123297;27;20070;-83
2021/04/20 13:14:46;;;;;;;7.18;3.70;;;20.60;29.90;;;;;;5125406;27;20541;-84
2021/04/20 13:17:19;;;;;;;10.40;4.20;;;20.60;30.00;;;;;;5120949;27;20125;-82
2021/04/20 13:19:49;;;;;;;8.85;3.72;;;20.90;30.00;;;;;;5129912;27;20075;-83
2021/04/20 13:22:15;;;;;;;5.80;3.85;;;21.00;30.00;;;;;;5106999;28;20113;-85
2021/04/20 13:24:42;;;;;;;9.32;4.30;;;21.20;30.70;;;;;;5125245;27;20028;-82
2021/04/20 13:27:09;;;;;;;5.28;3.72;;;21.50;29.90;;;;;;5110534;28;20031;-84